16 | 10 | 2021

Daten Vortag

Klimadaten von 10m Höhe gemessen, Station 

Datum / Zeit Intervall min Luftfeuchte % Temperatur °C Absoluter Luftdruck hPa Wind m/s Windböhen m/s Wind Richtung Relative Luftdruck hPa Taupunkt °C Windchill °C Niederschlag mm
15-10-2021 00:08 5 75 12.8 1011.7 5.0 7.2 S 1013.2 8.5 12.8 0.0
15-10-2021 00:14 5 75 12.7 1011.4 1.1 2.5 S 1012.9 8.4 12.7 0.0
15-10-2021 00:19 5 75 12.7 1011.5 2.5 5.0 E 1013.0 8.4 12.7 0.0
15-10-2021 00:24 5 75 12.7 1011.5 7.2 9.7 SSW 1013.0 8.4 11.7 0.0
15-10-2021 00:29 5 75 12.7 1011.3 3.6 6.1 E 1012.8 8.4 12.7 0.0
15-10-2021 00:34 5 75 12.7 1011.4 2.5 6.1 SW 1012.9 8.4 12.7 0.0
15-10-2021 00:39 5 75 12.7 1011.2 7.2 13.3 W 1012.7 8.4 11.7 0.0
15-10-2021 00:44 5 75 12.7 1011.2 3.6 6.1 S 1012.7 8.4 12.7 0.0
15-10-2021 00:49 5 75 12.7 1011.1 6.1 11.2 S 1012.6 8.4 12.7 0.0
15-10-2021 00:54 5 75 12.7 1011.2 2.5 3.6 W 1012.7 8.4 12.7 0.0
15-10-2021 00:59 5 74 12.7 1011.0 2.5 5.0 N 1012.5 8.2 12.7 0.0
15-10-2021 01:04 5 74 12.7 1010.9 2.5 3.6 S 1012.4 8.2 12.7 0.0
15-10-2021 01:09 5 74 12.7 1010.8 2.5 5.0 NNW 1012.3 8.2 12.7 0.0
15-10-2021 01:14 5 74 12.7 1010.9 1.1 2.5 S 1012.4 8.2 12.7 0.0
15-10-2021 01:19 5 74 12.8 1010.8 6.1 8.6 SW 1012.3 8.3 12.8 0.0
15-10-2021 01:24 5 74 12.8 1010.6 3.6 6.1 SW 1012.1 8.3 12.8 0.0
15-10-2021 01:29 5 74 12.8 1010.6 3.6 5.0 S 1012.1 8.3 12.8 0.0
15-10-2021 01:34 5 74 12.8 1010.6 5.0 7.2 SWW 1012.1 8.3 12.8 0.0
15-10-2021 01:39 5 75 12.7 1010.5 2.5 3.6 W 1012.0 8.4 12.7 0.0
15-10-2021 01:44 5 75 12.7 1010.4 1.1 3.6 S 1011.9 8.4 12.7 0.0
15-10-2021 01:49 5 76 12.7 1010.3 1.1 2.5 W 1011.8 8.6 12.7 0.0
15-10-2021 01:54 5 76 12.7 1010.3 8.6 14.8 SE 1011.8 8.6 10.9 0.0
15-10-2021 01:59 5 76 12.6 1010.0 6.1 11.2 W 1011.5 8.5 12.6 0.0
15-10-2021 02:04 5 77 12.6 1010.0 11.2 17.3 W 1011.5 8.7 9.7 0.0
15-10-2021 02:09 5 77 12.6 1009.8 8.6 12.2 S 1011.3 8.7 10.8 0.0
15-10-2021 02:14 5 77 12.6 1010.0 7.2 11.2 SW 1011.5 8.7 11.6 0.0
15-10-2021 02:19 5 78 12.5 1009.6 7.2 11.2 SE 1011.1 8.8 11.5 0.0
15-10-2021 02:24 5 78 12.5 1009.8 8.6 14.8 SW 1011.3 8.8 10.7 0.0
15-10-2021 02:29 5 79 12.6 1009.8 9.7 12.2 SW 1011.3 9.1 10.3 0.0
15-10-2021 02:34 5 78 12.6 1009.6 7.2 11.2 S 1011.1 8.9 11.6 0.3
15-10-2021 02:39 5 78 12.6 1009.6 5.0 8.6 NWW 1011.1 8.9 12.6 0.3
15-10-2021 02:44 5 79 12.6 1009.7 1.1 3.6 E 1011.2 9.1 12.6 0.3
15-10-2021 02:49 5 79 12.6 1009.8 8.6 13.3 NWW 1011.3 9.1 10.8 0.3
15-10-2021 02:54 5 79 12.6 1009.6 5.0 7.2 SSW 1011.1 9.1 12.6 0.3
15-10-2021 02:59 5 79 12.6 1009.6 5.0 8.6 SE 1011.1 9.1 12.6 0.3
15-10-2021 03:04 5 79 12.7 1009.2 8.6 11.2 W 1010.7 9.2 10.9 0.3
15-10-2021 03:09 5 79 12.7 1009.3 3.6 6.1 NE 1010.8 9.2 12.7 0.3
15-10-2021 03:14 5 80 12.6 1009.0 6.1 9.7 SW 1010.5 9.3 12.6 0.3
15-10-2021 03:19 5 80 12.7 1009.0 9.7 14.8 S 1010.5 9.4 10.4 0.3
15-10-2021 03:24 5 80 12.7 1009.0 3.6 6.1 SE 1010.5 9.4 12.7 0.3
15-10-2021 03:29 5 80 12.7 1008.8 1.1 3.6 SW 1010.3 9.4 12.7 0.3
15-10-2021 03:34 5 80 12.8 1008.8 5.0 7.2 S 1010.3 9.5 12.8 0.0
15-10-2021 03:39 5 80 12.8 1008.6 5.0 7.2 SW 1010.1 9.5 12.8 0.0
15-10-2021 03:44 5 80 12.8 1008.4 3.6 5.0 E 1009.9 9.5 12.8 0.0
15-10-2021 03:49 5 80 12.8 1008.3 2.5 5.0 S 1009.8 9.5 12.8 0.0
15-10-2021 03:54 5 80 12.8 1008.2 3.6 8.6 S 1009.7 9.5 12.8 0.0
15-10-2021 03:59 5 80 12.8 1008.3 5.0 7.2 SE 1009.8 9.5 12.8 0.0
15-10-2021 04:04 5 80 12.8 1008.2 7.2 12.2 SW 1009.7 9.5 11.8 0.0
15-10-2021 04:09 5 80 12.9 1008.3 2.5 5.0 SE 1009.8 9.5 12.9 0.0
15-10-2021 04:14 5 80 12.9 1007.8 7.2 9.7 E 1009.3 9.5 11.9 0.0
15-10-2021 04:19 5 80 12.8 1007.8 6.1 9.7 NW 1009.3 9.5 12.8 0.0
15-10-2021 04:24 5 80 12.8 1007.8 8.6 13.3 SSE 1009.3 9.5 11.0 0.0
15-10-2021 04:29 5 80 12.8 1007.5 5.0 8.6 SE 1009.0 9.5 12.8 0.0
15-10-2021 04:34 5 80 12.8 1007.4 9.7 17.3 S 1008.9 9.5 10.5 0.0
15-10-2021 04:39 5 80 12.7 1007.4 3.6 6.1 SW 1008.9 9.4 12.7 0.0
15-10-2021 04:44 5 80 12.8 1007.2 8.6 11.2 S 1008.7 9.5 11.0 0.0
15-10-2021 04:49 5 79 12.8 1007.4 5.0 6.1 SE 1008.9 9.3 12.8 0.0
15-10-2021 04:54 5 79 12.8 1007.1 6.1 9.7 SE 1008.6 9.3 12.8 0.0
15-10-2021 04:59 5 79 12.8 1007.0 3.6 6.1 NW 1008.5 9.3 12.8 0.0
15-10-2021 05:04 5 79 12.8 1007.1 6.1 12.2 W 1008.6 9.3 12.8 0.0
15-10-2021 05:09 5 79 12.9 1007.1 3.6 7.2 S 1008.6 9.4 12.9 0.0
15-10-2021 05:14 5 80 12.9 1006.7 2.5 3.6 N 1008.2 9.5 12.9 0.0
15-10-2021 05:19 5 79 13.0 1006.8 2.5 5.0 NWW 1008.3 9.5 13.0 0.0
15-10-2021 05:24 5 79 13.0 1006.9 3.6 7.2 W 1008.4 9.5 13.0 0.0
15-10-2021 05:29 5 79 12.9 1006.5 11.2 15.8 SSE 1008.0 9.4 10.0 0.0
15-10-2021 05:34 5 79 12.9 1006.6 5.0 8.6 N 1008.1 9.4 12.9 0.0
15-10-2021 05:39 5 79 12.9 1006.9 6.1 7.2 N 1008.4 9.4 12.9 0.0
15-10-2021 05:44 5 79 12.9 1006.9 5.0 8.6 SW 1008.4 9.4 12.9 0.0
15-10-2021 05:49 5 79 13.0 1006.7 6.1 9.7 W 1008.2 9.5 13.0 0.0
15-10-2021 05:54 5 79 13.0 1006.5 6.1 9.7 S 1008.0 9.5 13.0 0.0
15-10-2021 05:59 5 79 13.1 1006.7 3.6 6.1 SW 1008.2 9.6 13.1 0.0
15-10-2021 06:04 5 78 13.1 1006.3 6.1 11.2 S 1007.8 9.4 13.1 0.0
15-10-2021 06:09 5 78 13.1 1006.6 3.6 6.1 SWW 1008.1 9.4 13.1 0.0
15-10-2021 06:14 5 78 13.1 1006.4 5.0 8.6 SW 1007.9 9.4 13.1 0.0
15-10-2021 06:19 5 78 13.0 1006.4 6.1 8.6 SSW 1007.9 9.3 13.0 0.0
15-10-2021 06:24 5 78 13.0 1006.3 2.5 3.6 NW 1007.8 9.3 13.0 0.0
15-10-2021 06:29 5 78 13.0 1006.1 2.5 5.0 SWW 1007.6 9.3 13.0 0.0
15-10-2021 06:34 5 78 13.0 1006.1 6.1 12.2 S 1007.6 9.3 13.0 0.0
15-10-2021 06:39 5 78 13.0 1006.1 11.2 18.4 S 1007.6 9.3 10.1 0.0
15-10-2021 06:44 5 78 13.1 1005.9 5.0 8.6 SW 1007.4 9.4 13.1 0.0
15-10-2021 06:49 5 77 13.0 1005.7 5.0 7.2 S 1007.2 9.1 13.0 0.0
15-10-2021 06:54 5 77 13.0 1005.7 7.2 11.2 S 1007.2 9.1 12.0 0.0
15-10-2021 06:59 5 77 13.0 1005.7 7.2 9.7 W 1007.2 9.1 12.0 0.0
15-10-2021 07:04 5 77 13.0 1005.8 6.1 9.7 S 1007.3 9.1 13.0 0.0
15-10-2021 07:09 5 77 13.1 1005.5 6.1 9.7 E 1007.0 9.2 13.1 0.0
15-10-2021 07:14 5 77 13.1 1005.5 6.1 8.6 NNW 1007.0 9.2 13.1 0.0
15-10-2021 07:19 5 77 13.1 1005.3 2.5 3.6 SW 1006.8 9.2 13.1 0.0
15-10-2021 07:24 5 77 13.1 1005.4 3.6 6.1 NW 1006.9 9.2 13.1 0.0
15-10-2021 07:29 5 77 13.1 1005.5 7.2 12.2 S 1007.0 9.2 12.1 0.0
15-10-2021 07:34 5 77 13.1 1005.3 3.6 5.0 N 1006.8 9.2 13.1 0.0
15-10-2021 07:39 5 77 13.1 1005.2 6.1 9.7 NE 1006.7 9.2 13.1 0.0
15-10-2021 07:44 5 77 13.1 1005.1 1.1 3.6 S 1006.6 9.2 13.1 0.0
15-10-2021 07:49 5 77 13.1 1005.2 5.0 7.2 NW 1006.7 9.2 13.1 0.0
15-10-2021 07:54 5 77 13.1 1005.0 1.1 3.6 S 1006.5 9.2 13.1 0.0
15-10-2021 07:59 5 77 13.1 1005.0 8.6 12.2 W 1006.5 9.2 11.4 0.0
15-10-2021 08:04 5 77 13.1 1004.9 9.7 13.3 NW 1006.4 9.2 10.9 0.0
15-10-2021 08:09 5 76 13.2 1004.8 5.0 7.2 S 1006.3 9.1 13.2 0.0
15-10-2021 08:14 5 76 13.2 1005.0 8.6 9.7 S 1006.5 9.1 11.5 0.0
15-10-2021 08:19 5 76 13.2 1005.0 3.6 7.2 W 1006.5 9.1 13.2 0.0
15-10-2021 08:24 5 76 13.2 1004.7 7.2 12.2 NW 1006.2 9.1 12.2 0.0
15-10-2021 08:29 5 76 13.2 1004.8 3.6 7.2 S 1006.3 9.1 13.2 0.0
15-10-2021 08:34 5 76 13.2 1004.8 5.0 7.2 SW 1006.3 9.1 13.2 0.0
15-10-2021 08:39 5 76 13.2 1004.6 6.1 9.7 S 1006.1 9.1 13.2 0.0
15-10-2021 08:44 5 76 13.2 1004.6 2.5 5.0 W 1006.1 9.1 13.2 0.0
15-10-2021 08:49 5 76 13.1 1004.6 3.6 7.2 SW 1006.1 9.0 13.1 0.0
15-10-2021 08:54 5 77 13.0 1004.6 5.0 7.2 NWW 1006.1 9.1 13.0 0.0
15-10-2021 08:59 5 78 12.8 1004.5 3.6 5.0 N 1006.0 9.1 12.8 0.0
15-10-2021 09:04 5 79 12.8 1004.5 9.7 20.9 S 1006.0 9.3 10.5 0.0
15-10-2021 09:09 5 80 12.7 1004.5 7.2 13.3 S 1006.0 9.4 11.7 0.0
15-10-2021 09:14 5 80 12.6 1004.5 6.1 11.2 S 1006.0 9.3 12.6 0.3
15-10-2021 09:19 5 81 12.5 1004.6 5.0 7.2 SW 1006.1 9.3 12.5 0.3
15-10-2021 09:24 5 81 12.5 1004.6 3.6 7.2 NW 1006.1 9.3 12.5 0.3
15-10-2021 09:29 5 85 12.4 1004.5 13.3 23.4 NNW 1006.0 10.0 8.6 0.6
15-10-2021 09:34 5 86 12.3 1004.8 3.6 6.1 S 1006.3 10.0 12.3 0.6
15-10-2021 09:39 5 87 12.2 1005.8 8.6 11.2 SW 1007.3 10.1 10.4 1.2
15-10-2021 09:44 5 87 11.7 1005.9 11.2 17.3 W 1007.4 9.6 8.6 3.3
15-10-2021 09:49 5 89 11.3 1005.7 13.3 18.4 SW 1007.2 9.6 7.3 4.2
15-10-2021 09:54 5 90 11.1 1005.9 9.7 14.8 SW 1007.4 9.5 8.6 4.8
15-10-2021 09:59 5 90 11.0 1006.0 9.7 11.2 NW 1007.5 9.4 8.5 5.1
15-10-2021 10:04 5 91 11.0 1006.2 2.5 5.0 NW 1007.7 9.6 11.0 5.7
15-10-2021 10:09 5 91 10.9 1006.3 1.1 2.5 NW 1007.8 9.5 10.9 5.7
15-10-2021 10:14 5 91 10.9 1006.2 2.5 3.6 NW 1007.7 9.5 10.9 6.0
15-10-2021 10:19 5 91 10.9 1006.6 2.5 5.0 W 1008.1 9.5 10.9 6.0
15-10-2021 10:24 5 92 10.9 1006.8 2.5 6.1 NWW 1008.3 9.7 10.9 6.3
15-10-2021 10:29 5 92 10.8 1006.6 3.6 6.1 W 1008.1 9.6 10.8 6.0
15-10-2021 10:34 5 92 10.7 1006.8 1.1 2.5 S 1008.3 9.5 10.7 6.0
15-10-2021 10:39 5 92 10.7 1006.8 1.1 2.5 N 1008.3 9.5 10.7 5.4
15-10-2021 10:44 5 92 10.7 1007.0 3.6 6.1 W 1008.5 9.5 10.7 3.6
15-10-2021 10:49 5 92 10.7 1007.0 7.2 8.6 NE 1008.5 9.5 9.6 3.0
15-10-2021 10:54 5 92 10.6 1007.3 7.2 11.2 SWW 1008.8 9.4 9.5 2.4
15-10-2021 10:59 5 92 10.5 1007.2 3.6 8.6 W 1008.7 9.3 10.5 2.1
15-10-2021 11:04 5 92 10.4 1007.3 6.1 9.7 W 1008.8 9.2 10.4 1.5
15-10-2021 11:09 5 92 10.4 1007.3 8.6 12.2 NW 1008.8 9.2 8.4 1.5
15-10-2021 11:14 5 92 10.4 1007.5 3.6 5.0 W 1009.0 9.2 10.4 0.9
15-10-2021 11:19 5 91 10.3 1007.5 5.0 6.1 SW 1009.0 8.9 10.3 0.9
15-10-2021 11:24 5 91 10.4 1007.5 3.6 5.0 W 1009.0 9.0 10.4 0.6
15-10-2021 11:29 5 92 10.5 1007.6 6.1 9.7 N 1009.1 9.3 10.5 0.9
15-10-2021 11:34 5 92 10.7 1007.8 6.1 8.6 W 1009.3 9.5 10.7 0.9
15-10-2021 11:39 5 92 10.7 1007.6 3.6 6.1 SW 1009.1 9.5 10.7 0.9
15-10-2021 11:44 5 91 10.7 1007.6 3.6 6.1 W 1009.1 9.3 10.7 0.6
15-10-2021 11:49 5 91 10.7 1007.9 5.0 7.2 SWW 1009.4 9.3 10.7 0.3
15-10-2021 11:54 5 91 10.8 1007.8 5.0 7.2 SW 1009.3 9.4 10.8 0.3
15-10-2021 11:59 5 92 10.9 1008.2 6.1 8.6 W 1009.7 9.7 10.9 0.3
15-10-2021 12:04 5 92 11.0 1008.4 6.1 8.6 W 1009.9 9.8 11.0 0.3
15-10-2021 12:09 5 91 11.1 1008.3 6.1 8.6 W 1009.8 9.7 11.1 0.3
15-10-2021 12:14 5 91 11.2 1007.9 5.0 9.7 W 1009.4 9.8 11.2 0.3
15-10-2021 12:19 5 90 11.2 1008.2 6.1 8.6 W 1009.7 9.6 11.2 0.3
15-10-2021 12:24 5 90 11.3 1007.9 9.7 13.3 SWW 1009.4 9.7 8.9 0.3
15-10-2021 12:29 5 90 11.5 1008.4 11.2 13.3 NWW 1009.9 9.9 8.4 0.0
15-10-2021 12:34 5 87 11.7 1008.3 14.8 18.4 W 1009.8 9.6 7.3 0.0
15-10-2021 12:39 5 86 11.8 1008.4 9.7 12.2 SW 1009.9 9.5 9.4 0.0
15-10-2021 12:46 5 84 11.7 1008.4 13.3 19.4 NWW 1009.9 9.1 7.8 0.0
15-10-2021 12:51 5 83 11.8 1008.4 11.2 14.8 W 1009.9 9.0 8.8 0.0
15-10-2021 12:56 5 82 12.0 1008.4 8.6 17.3 W 1009.9 9.0 10.2 0.0
15-10-2021 13:01 5 81 12.0 1008.3 13.3 17.3 SW 1009.8 8.9 8.1 0.0
15-10-2021 13:06 5 80 12.0 1008.5 9.7 13.3 W 1010.0 8.7 9.6 0.0
15-10-2021 13:11 5 80 12.0 1008.5 7.2 11.2 W 1010.0 8.7 11.0 0.0
15-10-2021 13:16 5 80 12.1 1008.6 12.2 13.3 NW 1010.1 8.8 8.7 0.0
15-10-2021 13:21 5 79 12.0 1008.7 13.3 17.3 W 1010.2 8.5 8.1 0.0
15-10-2021 13:26 5 79 12.0 1008.9 11.2 13.3 W 1010.4 8.5 9.0 0.0
15-10-2021 13:31 5 80 12.1 1008.8 11.2 14.8 W 1010.3 8.8 9.1 0.0
15-10-2021 13:36 5 79 12.0 1008.7 13.3 17.3 W 1010.2 8.5 8.1 0.0
15-10-2021 13:41 5 78 12.0 1008.7 11.2 14.8 W 1010.2 8.3 9.0 0.0
15-10-2021 13:46 5 78 12.0 1008.8 11.2 15.8 NW 1010.3 8.3 9.0 0.0
15-10-2021 13:51 5 78 12.4 1009.1 8.6 9.7 W 1010.6 8.7 10.6 0.0
15-10-2021 13:56 5 73 12.9 1009.2 13.3 18.4 W 1010.7 8.2 9.2 0.0
15-10-2021 14:01 5 73 12.9 1009.3 13.3 18.4 W 1010.8 8.2 9.2 0.0
15-10-2021 14:06 5 73 12.7 1009.1 11.2 17.3 W 1010.6 8.0 9.8 0.0
15-10-2021 14:11 5 73 13.0 1009.3 17.3 23.4 W 1010.8 8.3 8.1 0.0
15-10-2021 14:16 5 73 13.2 1009.5 8.6 12.2 W 1011.0 8.5 11.5 0.0
15-10-2021 14:21 5 71 13.3 1009.6 15.8 23.4 W 1011.1 8.2 8.9 0.0
15-10-2021 14:26 5 71 13.3 1009.5 14.8 18.4 W 1011.0 8.2 9.2 0.0
15-10-2021 14:31 5 71 13.1 1009.7 17.3 22.0 W 1011.2 8.0 8.2 0.0
15-10-2021 14:36 5 71 12.9 1009.6 11.2 13.3 W 1011.1 7.8 10.0 0.0
15-10-2021 14:41 5 72 13.3 1009.5 12.2 18.4 W 1011.0 8.4 10.1 0.0
15-10-2021 14:46 5 71 13.3 1009.7 14.8 18.4 W 1011.2 8.2 9.2 0.0
15-10-2021 14:51 5 72 13.4 1009.6 9.7 17.3 SW 1011.1 8.5 11.2 0.0
15-10-2021 14:56 5 71 13.2 1009.8 7.2 11.2 W 1011.3 8.1 12.2 0.0
15-10-2021 15:01 5 71 13.2 1009.6 11.2 13.3 W 1011.1 8.1 10.4 0.0
15-10-2021 15:06 5 70 13.5 1009.8 12.2 14.8 W 1011.3 8.2 10.3 0.0
15-10-2021 15:11 5 70 13.8 1009.8 14.8 17.3 W 1011.3 8.4 9.8 0.0
15-10-2021 15:16 5 68 13.7 1009.8 14.8 15.8 W 1011.3 7.9 9.7 0.0
15-10-2021 15:21 5 70 13.8 1009.9 12.2 15.8 SW 1011.4 8.4 10.6 0.0
15-10-2021 15:26 5 70 13.8 1010.0 13.3 18.4 S 1011.5 8.4 10.3 0.0
15-10-2021 15:31 5 67 13.8 1010.0 14.8 19.4 W 1011.5 7.8 9.8 0.0
15-10-2021 15:36 5 66 13.8 1010.0 15.8 20.9 W 1011.5 7.6 9.5 0.0
15-10-2021 15:41 5 67 13.9 1009.9 12.2 14.8 W 1011.4 7.9 10.8 0.0
15-10-2021 15:46 5 64 13.9 1010.1 20.9 27.0 W 1011.6 7.2 8.3 0.0
15-10-2021 15:51 5 64 14.0 1010.2 12.2 14.8 W 1011.7 7.3 10.9 0.0
15-10-2021 15:56 5 63 14.0 1010.0 12.2 15.8 W 1011.5 7.1 10.9 0.0
15-10-2021 16:01 5 64 14.0 1010.1 13.3 18.4 S 1011.6 7.3 10.5 0.0
15-10-2021 16:06 5 64 13.9 1010.3 14.8 20.9 W 1011.8 7.2 9.9 0.0
15-10-2021 16:11 5 64 13.5 1010.4 11.2 14.8 W 1011.9 6.8 10.7 0.0
15-10-2021 16:16 5 66 13.1 1010.5 9.7 15.8 W 1012.0 6.9 10.9 0.0
15-10-2021 16:21 5 66 13.2 1010.3 13.3 20.9 W 1011.8 7.0 9.6 0.0
15-10-2021 16:26 5 65 13.2 1010.6 7.2 9.7 W 1012.1 6.8 12.2 0.0
15-10-2021 16:31 5 66 13.7 1010.4 8.6 11.2 W 1011.9 7.5 12.0 0.0
15-10-2021 16:36 5 65 13.9 1010.7 9.7 12.2 SW 1012.2 7.4 11.7 0.0
15-10-2021 16:41 5 64 14.0 1010.4 13.3 17.3 W 1011.9 7.3 10.5 0.0
15-10-2021 16:46 5 64 13.9 1010.5 8.6 12.2 NWW 1012.0 7.2 12.2 0.0
15-10-2021 16:51 5 63 13.4 1010.6 12.2 15.8 W 1012.1 6.5 10.2 0.0
15-10-2021 16:56 5 62 13.4 1010.8 11.2 15.8 W 1012.3 6.3 10.6 0.0
15-10-2021 17:01 5 63 13.2 1010.9 12.2 18.4 NW 1012.4 6.3 9.9 0.0
15-10-2021 17:06 5 64 12.9 1011.1 12.2 15.8 NWW 1012.6 6.3 9.6 0.0
15-10-2021 17:11 5 64 12.8 1011.0 14.8 18.4 W 1012.5 6.2 8.6 0.0
15-10-2021 17:16 5 64 12.7 1011.2 15.8 18.4 SWW 1012.7 6.1 8.1 0.0
15-10-2021 17:21 5 65 12.6 1011.0 15.8 18.4 W 1012.5 6.2 8.0 0.0
15-10-2021 17:26 5 64 12.7 1011.3 13.3 19.4 W 1012.8 6.1 9.0 0.0
15-10-2021 17:31 5 64 12.7 1011.3 12.2 14.8 NW 1012.8 6.1 9.4 0.0
15-10-2021 17:36 5 64 12.6 1011.2 13.3 17.3 W 1012.7 6.0 8.8 0.0
15-10-2021 17:41 5 70 12.3 1011.5 11.2 14.8 W 1013.0 7.0 9.3 0.0
15-10-2021 17:46 5 69 12.3 1011.5 11.2 18.4 W 1013.0 6.8 9.3 0.0
15-10-2021 17:51 5 70 12.1 1011.7 12.2 14.8 W 1013.2 6.8 8.7 0.0
15-10-2021 17:56 5 70 12.0 1011.5 7.2 11.2 NW 1013.0 6.7 11.0 0.0
15-10-2021 18:01 5 70 11.8 1011.8 9.7 14.8 W 1013.3 6.5 9.4 0.0
15-10-2021 18:06 5 70 11.8 1011.5 8.6 13.3 W 1013.0 6.5 10.0 0.0
15-10-2021 18:11 5 71 11.8 1011.9 6.1 8.6 W 1013.4 6.7 11.8 0.0
15-10-2021 18:16 5 71 11.8 1011.9 6.1 8.6 W 1013.4 6.7 11.8 0.0
15-10-2021 18:21 5 72 11.7 1012.0 5.0 6.1 W 1013.5 6.8 11.7 0.0
15-10-2021 18:26 5 72 11.7 1012.1 6.1 8.6 NW 1013.6 6.8 11.7 0.0
15-10-2021 18:31 5 72 11.7 1012.2 7.2 12.2 W 1013.7 6.8 10.7 0.0
15-10-2021 18:36 5 72 11.6 1012.2 8.6 11.2 W 1013.7 6.7 9.7 0.0
15-10-2021 18:41 5 72 11.5 1012.2 6.1 8.6 W 1013.7 6.6 11.5 0.0
15-10-2021 18:46 5 72 11.4 1012.4 12.2 15.8 W 1013.9 6.5 7.8 0.0
15-10-2021 18:51 5 72 11.2 1012.5 8.6 11.2 NW 1014.0 6.4 9.3 0.0
15-10-2021 18:56 5 71 11.2 1012.7 8.6 11.2 W 1014.2 6.2 9.3 0.0
15-10-2021 19:01 5 71 11.1 1012.8 11.2 13.3 W 1014.3 6.1 8.0 0.0
15-10-2021 19:06 5 72 11.1 1012.7 12.2 17.3 SW 1014.2 6.3 7.5 0.0
15-10-2021 19:11 5 72 11.1 1013.0 7.2 9.7 SW 1014.5 6.3 10.0 0.0
15-10-2021 19:16 5 72 11.1 1013.0 8.6 11.2 W 1014.5 6.3 9.2 0.0
15-10-2021 19:21 5 72 11.0 1013.2 9.7 13.3 W 1014.7 6.2 8.5 0.0
15-10-2021 19:26 5 72 11.0 1013.2 9.7 13.3 W 1014.7 6.2 8.5 0.0
15-10-2021 19:31 5 72 11.0 1013.1 14.8 18.4 W 1014.6 6.2 6.4 0.0
15-10-2021 19:36 5 72 11.0 1012.9 8.6 11.2 W 1014.4 6.2 9.1 0.0
15-10-2021 19:41 5 72 11.0 1013.3 7.2 9.7 SWW 1014.8 6.2 9.9 0.0
15-10-2021 19:46 5 72 11.0 1013.3 8.6 13.3 NW 1014.8 6.2 9.1 0.0
15-10-2021 19:51 5 72 10.9 1013.4 8.6 11.2 W 1014.9 6.1 9.0 0.0
15-10-2021 19:56 5 73 10.9 1013.3 8.6 13.3 W 1014.8 6.3 9.0 0.0
15-10-2021 20:01 5 73 10.7 1013.5 7.2 9.7 NWW 1015.0 6.1 9.6 0.0
15-10-2021 20:06 5 74 10.6 1013.4 8.6 12.2 W 1014.9 6.2 8.6 0.0
15-10-2021 20:11 5 74 10.6 1013.6 8.6 11.2 W 1015.1 6.2 8.6 0.0
15-10-2021 20:16 5 74 10.6 1013.7 6.1 8.6 W 1015.2 6.2 10.6 0.0
15-10-2021 20:21 5 74 10.5 1013.7 8.6 9.7 W 1015.2 6.1 8.5 0.0
15-10-2021 20:26 5 74 10.5 1014.0 6.1 7.2 W 1015.5 6.1 10.5 0.0
15-10-2021 20:31 5 74 10.4 1013.9 6.1 8.6 NW 1015.4 6.0 10.4 0.0
15-10-2021 20:36 5 74 10.4 1013.9 6.1 7.2 W 1015.4 6.0 10.4 0.0
15-10-2021 20:41 5 73 10.3 1013.9 7.2 8.6 W 1015.4 5.7 9.2 0.0
15-10-2021 20:46 5 73 10.3 1013.8 8.6 12.2 NW 1015.3 5.7 8.3 0.0
15-10-2021 20:51 5 73 10.3 1013.8 8.6 13.3 NW 1015.3 5.7 8.3 0.0
15-10-2021 20:56 5 72 10.3 1013.8 7.2 9.7 W 1015.3 5.5 9.2 0.0
15-10-2021 21:01 5 72 10.3 1013.9 6.1 8.6 W 1015.4 5.5 10.3 0.0
15-10-2021 21:06 5 72 10.3 1014.0 8.6 12.2 W 1015.5 5.5 8.3 0.0
15-10-2021 21:11 5 73 10.2 1014.0 1.1 2.5 NWW 1015.5 5.6 10.2 0.0
15-10-2021 21:16 5 73 9.9 1014.2 0.0 1.1 W 1015.7 5.3 9.9 0.0
15-10-2021 21:21 5 73 9.6 1014.2 1.1 3.6 W 1015.7 5.0 9.6 0.0
15-10-2021 21:26 5 74 9.4 1014.4 3.6 6.1 SWW 1015.9 5.0 9.4 0.0
15-10-2021 21:31 5 76 9.3 1014.3 2.5 5.0 SW 1015.8 5.3 9.3 0.0
15-10-2021 21:36 5 77 9.3 1014.5 2.5 3.6 SSW 1016.0 5.5 9.3 0.0
15-10-2021 21:41 5 78 9.2 1014.5 1.1 2.5 W 1016.0 5.6 9.2 0.0
15-10-2021 21:46 5 78 9.2 1014.4 2.5 3.6 W 1015.9 5.6 9.2 0.0
15-10-2021 21:51 5 78 9.1 1014.8 0.0 1.1 NE 1016.3 5.5 9.1 0.0
15-10-2021 21:56 5 79 9.0 1014.8 1.1 2.5 W 1016.3 5.6 9.0 0.0
15-10-2021 22:01 5 79 8.9 1014.7 2.5 3.6 SW 1016.2 5.5 8.9 0.0
15-10-2021 22:06 5 79 8.8 1014.7 2.5 3.6 W 1016.2 5.4 8.8 0.0
15-10-2021 22:12 6 80 8.9 1014.9 3.6 5.0 SW 1016.4 5.6 8.9 0.0
15-10-2021 22:17 5 80 9.1 1014.7 5.0 6.1 SW 1016.2 5.8 9.1 0.0
15-10-2021 22:22 5 79 9.2 1014.8 2.5 5.0 W 1016.3 5.8 9.2 0.0
15-10-2021 22:28 6 78 9.3 1014.9 5.0 6.1 W 1016.4 5.7 9.3 0.0
15-10-2021 22:33 5 77 9.4 1014.9 6.1 8.6 W 1016.4 5.6 9.4 0.0
15-10-2021 22:38 5 76 9.6 1015.0 6.1 9.7 W 1016.5 5.6 9.6 0.0
15-10-2021 22:44 6 75 9.9 1015.0 6.1 7.2 W 1016.5 5.7 9.9 0.0
15-10-2021 22:49 5 75 9.9 1015.0 3.6 5.0 SW 1016.5 5.7 9.9 0.0
15-10-2021 22:54 5 75 9.9 1015.1 5.0 7.2 W 1016.6 5.7 9.9 0.0
15-10-2021 23:00 6 75 9.7 1015.0 3.6 5.0 W 1016.5 5.5 9.7 0.0
15-10-2021 23:05 5 75 9.6 1015.3 3.6 6.1 SW 1016.8 5.4 9.6 0.0
15-10-2021 23:10 5 75 9.6 1015.3 3.6 6.1 SW 1016.8 5.4 9.6 0.0
15-10-2021 23:15 5 75 9.5 1015.2 5.0 7.2 W 1016.7 5.3 9.5 0.0
15-10-2021 23:20 5 75 9.5 1015.1 5.0 7.2 SW 1016.6 5.3 9.5 0.0
15-10-2021 23:25 5 75 9.4 1015.4 5.0 5.0 SWW 1016.9 5.2 9.4 0.0
15-10-2021 23:30 5 76 9.3 1015.4 6.1 8.6 W 1016.9 5.3 9.3 0.0
15-10-2021 23:35 5 76 9.2 1015.6 5.0 7.2 SSW 1017.1 5.2 9.2 0.0
15-10-2021 23:40 5 76 9.1 1015.8 5.0 6.1 NWW 1017.3 5.1 9.1 0.0
15-10-2021 23:45 5 77 9.0 1015.8 3.6 5.0 S 1017.3 5.2 9.0 0.0
15-10-2021 23:50 5 77 8.9 1015.5 3.6 5.0 W 1017.0 5.1 8.9 0.0
15-10-2021 23:55 5 77 8.8 1015.5 5.0 6.1 SWW 1017.0 5.0 8.8 0.0

 

 Tagesdaten                                                                      Tabelle: 08 UHR

STATIONHÖHELUFTD.TEMP.T-MinT-MaxU%RR1RR12SSSDDFFFXWetter+WolkenBöen
UFS TW Ems 0 1010.3 12.7 10.5 15.3 66 ---- --- --- NW 47 --- --- ---
UFS Deutsche Bucht 0 1008.8 12.0 11.6 15.3 76 ---- --- --- NW 50 --- --- ---
Helgoland 4 1008.5 11.5 11.1 15.3 83 0.6 8 0 NW 35 51 leichter Regen Windböen
List/Sylt 26 1006.4 10.5 10.1 14.3 77 0.5 5 0 NW 49 72 Regen Sturmböen
Schleswig 43 1006.8 9.2 9.2 12.9 94 2.2 15 0 NW 13 32 leichter Regen ---
Leuchtturm Kiel 5 1005.9 10.4 10.2 13.5 83 ---- --- --- NW 55 75 --- Sturmböen
Kiel 27 1006.5 10.5 10.5 13.2 93 4.3 7 0 NW 20 47 leichter Regen ---
Fehmarn 3 1005.4 11.1 10.8 13.6 95 5.4 6 0 NW 40 54 Regen Windböen
Arkona 42 1004.3 11.3 11.1 12.4 91 0.0 0 0 SW 42 57 Regen Windböen
Norderney 11 1009.8 11.8 11.5 13.6 83 1.5 9 0 NW 50 66 leichter Regen Sturmböen
Leuchtt. Alte Weser 32 1008.1 11.4 11.1 13.7 83 ---- --- --- NW 54 --- --- ---
Cuxhaven 5 1007.9 11.2 11.1 13.5 89 4.7 5 0 NW 38 55 leichter Regen Windböen
Hamburg-Flh. 11 1007.1 12.3 12.0 13.1 87 0.0 0 0 SW 29 53 leichter Regen Windböen
Schwerin 59 1007.4 12.2 11.5 12.5 82 0.0 0 0 SW 24 42 --- ---
Rostock 4 1005.6 12.8 12.3 13.0 80 0.0 0 0 SW 23 41 --- ---
Greifswald 2 1006.6 12.6 12.0 12.7 82 0.0 0 0 -- --- ---   ---
Emden 0 1010.5 10.6 10.5 13.8 93 4.8 6 0 NW 27 51 leichter Regen Windböen
Bremen-Flh. 5 1009.1 12.5 12.2 13.5 82 0.0 0 0 SW 30 46 bedeckt ---
Lüchow 17 1009.6 12.1 11.4 13.2 81 0.0 0 0 SW 21 40 --- ---
Marnitz 81 1008.6 11.7 11.3 12.1 84 0.0 0 0 W 17 35 --- ---
Waren 70 1008.2 12.0 11.4 12.4 82 0.0 0 0 SW 19 37 --- ---
Neuruppin 38 1010.4 11.1 10.9 12.1 85 0.0 0 0 SW 14 28 --- ---
Angermünde 56 1010.6 11.9 11.4 12.0 83 0.0 0 0 SW 17 35 --- ---
Münster/Osnabr.-Flh. 48 1012.8 11.7 11.7 13.7 79 0.0 0 0 SW 22 34 bedeckt ---
Hannover-Flh. 59 1011.2 12.0 11.9 13.2 77 0.0 0 0 SW 21 41 bedeckt ---
Magdeburg 76 1012.5 11.5 9.8 12.7 84 0.0 0 0 S 10 19 --- ---
Potsdam 81 1012.1 11.3 11.0 11.6 85 0.0 0 0 SW 22 39 --- ---
Berlin-Brandenburg-Flgh. 46 1012.5 11.6 11.1 12.2 82 0.0 0 0 SW 25 35 stark bewölkt ---
Berlin-Tempelhof 48 1012.1 11.8 11.4 12.3 79 0.0 0 --- SW 17 33 --- ---
Berlin-Dahlem 51 1011.9 11.5 11.3 12.1 --- ---- 0 0 SW 22 --- stark bewölkt ---
Lindenberg 91 1013.2 11.0 10.7 11.6 83 0.0 0 0 SW 17 31 --- ---
Düsseldorf-Flh. 45 1015.7 11.0 9.9 13.0 80 0.0 0 0 SW 21 33 bedeckt ---
Essen 150 1015.4 10.2 10.0 12.6 83 0.0 0 0 SW 18 36 --- ---
Kahler Asten 839 ------ 4.7 4.6 7.4 99 0.0 0 0 W 31 48 Nebel ---
Bad Lippspringe 157 1013.9 10.9 10.9 12.3 76 0.0 0 0 W 18 32 --- ---
Fritzlar 174 1015.9 7.9 7.6 11.2 90 ---- 0 0 S 18 --- bewölkt ---
Brocken 1142 ------ 3.7 3.7 5.2 100 0.0 0 0 SW 69 85 Nebel Sturmböen
Leipzig-Flh. 142 1014.7 11.5 8.6 11.9 80 0.0 0 0 S 19 31 stark bewölkt ---
Dresden-Flh. 227 1016.1 10.9 10.5 11.0 78 0.0 0 0 S 19 28 bedeckt ---
Cottbus 69 1014.4 10.9 10.8 11.4 84 0.0 0 --- SW 11 21 --- ---
Görlitz 238 1016.4 10.1 9.0 10.4 83 0.0 0 0 S 24 38 --- ---
Aachen 231 1016.9 9.4 8.1 11.8 80 0.0 0 0 SW 21 31 --- ---
Nürburg 485 1018.5 6.2 5.8 10.5 94 0.0 0 0 SW 10 17 --- ---
Köln/Bonn-Flh. 92 1017.0 9.4 7.5 13.8 82 0.0 0 0 S 10 15 stark bewölkt ---
Gießen/Wettenberg 203 1017.8 5.4 5.0 12.0 99 0.0 0 0 O 4 8 Dunst oder flacher Nebel ---
Wasserkuppe 921 ------ 4.3 4.3 6.7 100 0.0 0 0 SW 35 47 Nebel ---
Meiningen 450 1018.2 6.2 6.2 9.2 98 0.0 0 0 S 10 17 Nebel ---
Erfurt 316 1015.8 9.1 8.7 11.0 83 0.0 0 0 SW 18 22 bewölkt ---
Gera 311 1016.6 9.1 9.1 10.2 85 0.0 0 0 SW 21 32 --- ---
Fichtelberg 1213 ------ 4.0 3.5 4.5 100 0.0 0 0 W 42 59 Nebel Windböen
Trier 265 1019.8 3.5 3.5 10.5 100 0.0 0 0 S 3 9 Nebel ---
Hahn-Flh. 497 1018.9 6.5 5.4 9.5 91 0.0 0 0 W 13 19 --- ---
Frankfurt/M-Flh. 112 1019.0 6.3 5.0 12.8 95 0.0 0 0 SW 14 --- Dunst oder flacher Nebel ---
OF-Wetterpark 119 1018.7 6.4 5.3 12.6 94 0.0 0 0 SW 4 14 --- ---
Würzburg 268 1019.9 4.2 3.5 10.1 98 0.0 0 0 S 5 10 --- ---
Bamberg 239 1019.6 3.9 2.0 9.3 97 0.0 0 0 S 7 14 Nebel ---
Hof 567 1018.3 6.3 6.2 8.1 91 0.0 0 --- S 10 18 --- ---
Weiden 438 1019.8 6.5 6.0 8.0 95 0.0 0 0 S 7 18 Dunst oder flacher Nebel ---
Saarbrücken-Flh. 320 1020.4 2.3 1.7 9.3 99 0.0 0 0 SO 4 5 Nebel ---
Karlsruhe-Rheinst. 116 1020.3 4.9 2.1 9.0 99 0.0 0 0 SW 9 15 --- ---
Mannheim 96 1019.6 5.8 3.3 10.9 94 0.0 0 --- S 8 13 --- ---
Stuttgart-Flh. 371 1020.9 1.9 0.6 9.6 97 0.0 0 0 NO 2 5 Nebel ---
Öhringen 276 1020.4 3.0 2.7 9.2 94 0.0 0 0 O 5 7 --- ---
Nürnberg-Flh. 314 1020.0 4.3 3.6 9.5 95 0.0 0 0 -- --- 14 Dunst oder flacher Nebel ---
Regensburg 366 1020.7 6.2 6.2 8.8 97 0.0 0 0 S 8 18 Nebel ---
Straubing 351 1021.0 5.8 5.7 7.8 98 0.0 0 0 SO 10 18 Nebel ---
Großer Arber 1436 ------ 2.1 1.7 3.4 99 0.0 0 0 SW 28 33 Nebel ---
Lahr 155 1020.5 3.4 2.3 7.8 97 0.0 0 0 SW 6 12 --- ---
Freudenstadt 797 ------ 4.5 3.0 6.4 88 0.0 0 0 -- --- ---   ---
Stötten 734 1019.7 6.5 5.7 8.1 69 0.0 0 0 S 11 22 --- ---
Augsburg 462 1021.8 1.5 0.8 9.1 96 0.0 0 0 SO 6 10 --- ---
München-Flh. 444 1021.8 1.4 -0.2 9.7 98 0.0 0 0 S 3 5 heiter ---
Fürstenzell 476 1021.2 5.4 5.3 7.6 100 0.1 1 0 NO 8 11 Nebel ---
Feldberg/Schw. 1486 ------ 5.6 5.5 7.1 60 0.0 0 0 S 25 27 --- ---
Konstanz 443 1022.2 3.6 1.7 5.8 99 0.0 0 0 N 4 5 Nebel ---
Kempten 705 1023.1 0.3 -0.4 4.3 98 0.0 0 0 SW 3 10 --- ---
Oberstdorf 806 ------ -2.6 -2.7 3.8 94 0.0 0 0 SW 3 8 --- ---
Zugspitze 2960 ------ -2.9 -7.0 -2.9 29 ---- --- 30 NW 20 29 Schneefall ---
Hohenpeißenberg 977 ------ 5.3 4.2 7.5 72 0.0 0 0 SW 14 22 --- ---

                                                                                                         Tabelle: 20 UHR 

STATIONHÖHELUFTD.TEMP.T-MinT-MaxU%RR1RR12SSSDDFFFXWetter+WolkenBöen
UFS TW Ems 0 1019.1 11.7 10.3 13.1 68 ---- --- --- NW 36 --- --- ---
UFS Deutsche Bucht 26 1017.9 12.7 11.2 13.4 64 ---- --- --- NW 36 --- --- ---
Helgoland 4 1017.8 12.2 10.9 14.2 65 0.0 1 0 NW 32 48 Regen ---
List/Sylt 26 1016.1 11.3 10.1 14.0 63 0.0 0 0 NW 41 58 --- Windböen
Schleswig 43 1016.3 7.9 7.9 13.9 83 0.0 0 0 W 9 18 wolkenlos ---
Leuchtturm Kiel 5 1015.4 11.3 9.8 13.8 67 ---- --- --- NW 43 59 --- Windböen
Kiel 27 1015.8 9.5 9.2 14.1 74 0.0 3 0 W 16 26 wolkenlos ---
Fehmarn 3 1014.5 12.2 10.7 13.6 67 0.0 3 0 NW 49 60 wolkenlos Windböen
Arkona 42 1012.0 11.4 9.3 12.2 68 0.0 6 0 W 36 58 --- Windböen
Norderney 11 1018.8 11.4 11.0 13.1 78 0.0 2 0 NW 47 53 --- Windböen
Leuchtt. Alte Weser 32 1017.7 12.2 10.6 13.2 73 ---- --- --- NW 36 --- --- ---
Cuxhaven 5 1017.7 12.1 10.3 13.9 67 0.0 3 0 NW 23 43 --- ---
Hamburg-Flh 11 1017.2 9.4 9.1 13.8 85 0.0 8 0 W 8 17 gering bewölkt ---
Schwerin 59 1016.0 10.1 9.4 13.5 78 0.0 3 0 W 15 25 --- ---
Rostock 4 1014.1 12.1 10.1 13.3 68 0.0 10 0 NW 44 55 --- Windböen
Greifswald 2 1013.3 10.1 9.5 12.9 78 0.0 4 0 W 13 31 --- ---
Emden 0 1019.2 9.2 9.2 13.8 88 0.0 4 0 W 5 17 Regen ---
Bremen-Flh. 5 1018.9 7.3 7.3 14.0 88 0.0 8 0 W 11 15 gering bewölkt ---
Lüchow 17 1017.3 9.5 9.4 13.7 81 0.0 2 0 W 10 18 --- ---
Marnitz 81 1016.0 9.1 9.1 12.7 83 0.0 4 0 NW 14 27 --- ---
Waren 70 1015.1 10.3 9.5 12.5 75 0.0 3 0 W 15 26 --- ---
Neuruppin 38 1015.9 9.4 9.3 13.0 84 0.0 3 0 W 7 15 --- ---
Angermünde 56 1014.8 9.8 9.4 13.7 89 0.0 2 0 SW 21 30 --- ---
Münster/Osnabr.-Flh. 48 1020.5 7.6 7.5 14.0 83 0.0 2 0 W 6 11 gering bewölkt ---
Hannover-Flh. 59 1019.1 7.4 7.1 13.2 87 0.0 2 0 W 7 15 gering bewölkt ---
Magdeburg 76 1018.3 8.9 8.7 13.7 85 0.0 0 0 W 8 14 wolkenlos ---
Potsdam 81 1016.6 8.4 8.3 12.8 98 0.0 1 0 W 23 38 wolkenlos ---
Berlin-Brandenburg-Flgh. 46 1016.5 7.6 7.4 14.0 95 0.0 1 0 SW 15 17 gering bewölkt ---
Berlin-Tempelhof 48 1016.3 9.1 9.1 13.6 90 0.0 2 --- SW 11 17 --- ---
Berlin-Dahlem 51 1016.1 8.7 8.5 13.3 --- ---- 2 0 W 14 --- gering bewölkt ---
Lindenberg 91 1016.6 8.2 8.1 14.4 93 0.0 1 0 W 12 21 wolkenlos ---
Düsseldorf-Flh. 45 1021.0 10.9 10.9 15.0 74 0.0 1 0 N 8 17 bewölkt ---
Essen 150 1021.0 9.8 9.7 14.0 79 0.0 1 0 N 7 14 wolkenlos ---
Kahler Asten 839 ------ 5.3 4.7 6.5 97 0.1 3 0 NW 10 20 leichter Regen ---
Bad Lippspringe 157 1020.3 6.9 6.8 13.2 95 0.0 3 0 SO 4 7 wolkenlos ---
Fritzlar 174 1020.2 7.7 7.7 12.5 87 ---- 0 0 NW 11 --- gering bewölkt ---
Brocken 1142 ------ 1.7 1.5 4.3 99 0.0 3 0 NW 31 44 Nebel ---
Leipzig-Flh. 142 1018.8 7.3 6.9 13.2 91 0.0 0 0 W 12 13 wolkenlos ---
Dresden-Flh. 227 1018.5 8.8 8.6 15.2 88 0.0 0 0 W 11 22 gering bewölkt ---
Cottbus 69 1017.4 7.2 6.6 16.0 96 0.0 1 --- SW 8 11 wolkenlos ---
Görlitz 238 1017.9 7.7 7.7 15.0 91 0.1 1 0 W 9 24 Regen ---
Aachen 231 1021.1 9.3 8.8 13.0 88 0.0 2 0 SW 6 8 --- ---
Nürburg 485 1021.2 7.4 6.2 11.3 100 0.0 1 0 N 4 6 wolkenlos ---
Köln/Bonn-Flh. 92 1021.0 7.6 7.6 13.7 96 0.0 1 0 O 6 9 gering bewölkt ---
Gießen/Wettenberg 203 1020.3 8.3 5.0 12.6 87 0.0 0 0 W 10 12 wolkenlos ---
Wasserkuppe 921 ------ 4.4 4.3 6.3 97 0.0 1 0 N 11 25 --- ---
Meiningen 450 1020.3 6.5 5.9 11.5 96 0.0 1 0 NW 8 9 wolkenlos ---
Erfurt 316 1019.8 6.9 6.1 12.2 97 0.0 0 0 SW 9 16 gering bewölkt ---
Gera 311 1019.5 6.9 6.8 12.6 94 0.0 1 0 W 8 17 wolkenlos ---
Fichtelberg 1213 ------ 2.6 2.5 6.0 100 1.1 3 0 NW 27 53 Nebel Windböen
Trier 265 1020.7 10.3 3.4 14.7 95 0.4 0 0 O 5 21 Regen ---
Hahn-Flh. 497 1020.6 8.5 6.3 12.0 97 0.0 0 0 N 4 9 --- ---
Frankfurt/M-Flh. 112 1019.8 11.6 6.1 15.2 79 0.0 0 0 NW 8 22 bewölkt ---
OF-Wetterpark 119 1019.8 10.7 6.3 14.5 94 0.0 0 0 N 3 8 Regen ---
Würzburg 268 1020.0 11.6 4.3 15.4 83 0.0 0 0 N 7 22 Regen ---
Bamberg 239 1019.3 11.6 3.9 14.9 81 0.1 0 0 NW 8 20 leichter Regen ---
Hof 567 1019.6 7.5 6.2 11.0 93 0.0 0 --- NW 5 31 leichter Regen ---
Weiden 438 1018.9 10.7 6.5 13.5 79 0.0 0 0 W 4 13 --- ---
Saarbrücken-Flh. 320 1020.3 9.3 1.9 13.9 88 0.0 0 0 W 3 9 stark bewölkt ---
Karlsruhe-Rheinst. 116 1020.0 9.9 4.8 14.6 87 0.0 0 0 SW 4 8 --- ---
Mannheim 96 1019.8 12.9 5.8 15.7 80 0.0 0 --- N 8 14 --- ---
Stuttgart-Flh. 371 1020.1 9.4 1.3 15.0 74 0.0 0 0 W 7 8 gering bewölkt ---
Öhringen 276 1020.1 9.2 3.0 14.5 85 0.0 0 0 SO 6 10 --- ---
Nürnberg-Flh. 314 1019.2 10.9 4.1 15.0 79 0.0 0 0 SW 2 4 bedeckt ---
Regensburg 366 1018.7 11.2 6.2 16.4 81 0.0 0 0 NW 3 10 --- ---
Straubing 351 1018.7 10.7 5.3 15.0 85 0.0 0 0 S 2 4 --- ---
Großer Arber 1436 ------ 3.8 1.9 6.6 97 0.0 0 0 W 28 42 Dunst oder flacher Nebel ---
Lahr 155 1020.2 8.1 3.1 15.8 92 0.0 0 0 - 0 7 --- ---
Freudenstadt 797 ------ 5.3 4.1 12.6 88 0.0 0 0 -- --- ---   ---
Stötten 734 1020.2 7.3 6.2 11.9 84 0.0 0 0 W 8 14 --- ---
Augsburg 462 1019.4 10.4 1.3 14.9 77 0.0 0 0 NW 10 14 --- ---
München-Flh. 444 1018.7 12.1 0.8 15.1 69 0.0 0 0 W 5 5 stark bewölkt ---
Fürstenzell 476 1018.5 10.7 5.3 14.7 81 0.0 0 0 W 4 7 --- ---
Feldberg/Schw. 1486 ------ 4.9 4.4 7.7 73 0.0 0 0 N 18 20 --- ---
Konstanz 443 1019.9 8.4 3.6 14.8 91 0.0 0 0 NO 3 8 --- ---
Kempten 705 1019.5 9.1 0.2 15.3 80 0.0 0 0 NO 3 7 --- ---
Oberstdorf 806 ------ 7.7 -2.5 16.8 87 0.0 0 0 SW 3 14 --- ---
Zugspitze 2960 ------ -4.9 -4.9 -2.3 95 ---- --- --- N 15 30 Schneefall ---
Hohenpeißenberg 977 ------ 9.1 5.2 14.3 67 0.0 0 0 N 13 24 --- ---

 

  • Wetterzustand
  • Windrichtung und -geschwindigkeit
  • Luftdruck
  • relative Luftfeuchtigkeit
  • Sichtweite
  • Gesamtbedeckungsgrad
  • Niederschlag
  • Sonnenscheindauer

 Höhe:     m über NN
Luftd.:   auf Meereshöhe reduzierter Luftdruck in hPa
TEMP.:   Lufttemperatur in Grad Celsius
T-MIN:   Minimumtemperatur der Luft in 2m Höhe in Grad Celsius, von 18 UTC Vortag bis 06 UTC heute
T-MAX:  Maximumtemperatur der Luft in 2m Höhe in Grad Celsius, von 18 UTC Vortag bis 06 UTC heute
RR1:     Niederschlagsmenge, einstündig, mm ist gleich Liter pro
RR12:   Niederschlagsmenge, 12 stündig, 18 UTC Vortag bis 06 UTC heute in mm ist gleich Liter pro
SSS:     Gesamtschneehöhe
DD:      Windrichtung
FF:       Windgeschwindigkeit letztes 10-Minutenmittel in km/h
FX:       höchste Windspitze während der letzten Stunde in km/h
---:      Wert nicht vorhanden

 

2009-2021

Unwetterwarnungen

Unwetterwarnungen

 

  Radarbild           

aktueller Radarfilm Deutschland

Mecklenburg Vorpommern/

Brandenburg

aktuelles Wetter und aktuelle Temperatur Region Nordost

Waldbrandgefahr   

Deutschlandkarte mit dem Tageswert des Waldbrand-Gefahrenindex WBI, heute